sensor_id;sensor_type;location;lat;lon;timestamp;temperature;humidity
75927;DHT22;64605;48.296;16.416;2023-04-07T00:00:28;9.30;36.90
75927;DHT22;64605;48.296;16.416;2023-04-07T00:02:54;9.30;36.90
75927;DHT22;64605;48.296;16.416;2023-04-07T00:05:20;9.30;36.90
75927;DHT22;64605;48.296;16.416;2023-04-07T00:07:45;9.30;37.00
75927;DHT22;64605;48.296;16.416;2023-04-07T00:10:11;9.30;36.80
75927;DHT22;64605;48.296;16.416;2023-04-07T00:12:37;9.30;36.60
75927;DHT22;64605;48.296;16.416;2023-04-07T00:15:02;9.30;36.80
75927;DHT22;64605;48.296;16.416;2023-04-07T00:17:28;9.30;36.60
75927;DHT22;64605;48.296;16.416;2023-04-07T00:19:54;9.30;36.50
75927;DHT22;64605;48.296;16.416;2023-04-07T00:22:19;9.30;36.30
75927;DHT22;64605;48.296;16.416;2023-04-07T00:24:45;9.30;36.50
75927;DHT22;64605;48.296;16.416;2023-04-07T00:27:11;9.40;36.70
75927;DHT22;64605;48.296;16.416;2023-04-07T00:29:37;9.30;36.70
75927;DHT22;64605;48.296;16.416;2023-04-07T00:32:02;9.30;36.60
75927;DHT22;64605;48.296;16.416;2023-04-07T00:34:28;9.30;36.30
75927;DHT22;64605;48.296;16.416;2023-04-07T00:36:53;9.30;36.70
75927;DHT22;64605;48.296;16.416;2023-04-07T00:39:20;9.30;36.60
75927;DHT22;64605;48.296;16.416;2023-04-07T00:41:47;9.30;36.60
75927;DHT22;64605;48.296;16.416;2023-04-07T00:44:13;9.30;37.00
75927;DHT22;64605;48.296;16.416;2023-04-07T00:46:40;9.30;37.00
75927;DHT22;64605;48.296;16.416;2023-04-07T00:49:06;9.20;37.20
75927;DHT22;64605;48.296;16.416;2023-04-07T00:51:32;9.20;37.00
75927;DHT22;64605;48.296;16.416;2023-04-07T00:53:59;9.30;37.00
75927;DHT22;64605;48.296;16.416;2023-04-07T00:56:26;9.30;36.80
75927;DHT22;64605;48.296;16.416;2023-04-07T00:58:51;9.20;37.20
75927;DHT22;64605;48.296;16.416;2023-04-07T01:01:30;9.20;37.10
75927;DHT22;64605;48.296;16.416;2023-04-07T01:04:10;9.20;37.10
75927;DHT22;64605;48.296;16.416;2023-04-07T01:06:40;9.20;36.80
75927;DHT22;64605;48.296;16.416;2023-04-07T01:09:18;9.20;36.70
75927;DHT22;64605;48.296;16.416;2023-04-07T01:12:03;9.20;36.80
75927;DHT22;64605;48.296;16.416;2023-04-07T01:14:41;9.20;36.80
75927;DHT22;64605;48.296;16.416;2023-04-07T01:17:11;9.20;37.20
75927;DHT22;64605;48.296;16.416;2023-04-07T01:19:50;9.20;37.00
75927;DHT22;64605;48.296;16.416;2023-04-07T01:22:24;9.20;36.70
75927;DHT22;64605;48.296;16.416;2023-04-07T01:25:01;9.20;36.70
75927;DHT22;64605;48.296;16.416;2023-04-07T01:30:02;9.20;36.60
75927;DHT22;64605;48.296;16.416;2023-04-07T01:32:29;9.20;37.00
75927;DHT22;64605;48.296;16.416;2023-04-07T01:34:56;9.10;37.40
75927;DHT22;64605;48.296;16.416;2023-04-07T01:37:24;9.10;37.10
75927;DHT22;64605;48.296;16.416;2023-04-07T01:39:51;9.10;37.10
75927;DHT22;64605;48.296;16.416;2023-04-07T01:42:18;9.10;37.20
75927;DHT22;64605;48.296;16.416;2023-04-07T01:44:44;9.10;37.30
75927;DHT22;64605;48.296;16.416;2023-04-07T01:47:11;9.10;37.20
75927;DHT22;64605;48.296;16.416;2023-04-07T01:49:37;9.10;37.10
75927;DHT22;64605;48.296;16.416;2023-04-07T01:52:04;9.10;37.40
75927;DHT22;64605;48.296;16.416;2023-04-07T01:54:30;9.00;37.60
75927;DHT22;64605;48.296;16.416;2023-04-07T01:56:57;9.00;37.10
75927;DHT22;64605;48.296;16.416;2023-04-07T01:59:23;9.00;37.70
75927;DHT22;64605;48.296;16.416;2023-04-07T02:01:49;9.00;37.50
75927;DHT22;64605;48.296;16.416;2023-04-07T02:04:29;9.00;37.60
75927;DHT22;64605;48.296;16.416;2023-04-07T02:07:08;9.00;37.70
75927;DHT22;64605;48.296;16.416;2023-04-07T02:09:38;9.00;37.20
75927;DHT22;64605;48.296;16.416;2023-04-07T02:12:07;9.00;37.50
75927;DHT22;64605;48.296;16.416;2023-04-07T02:14:34;9.00;37.30
75927;DHT22;64605;48.296;16.416;2023-04-07T02:17:03;9.00;38.40
75927;DHT22;64605;48.296;16.416;2023-04-07T02:19:29;9.00;37.30
75927;DHT22;64605;48.296;16.416;2023-04-07T02:21:55;9.00;37.40
75927;DHT22;64605;48.296;16.416;2023-04-07T02:24:21;8.90;37.70
75927;DHT22;64605;48.296;16.416;2023-04-07T02:26:47;8.80;37.90
75927;DHT22;64605;48.296;16.416;2023-04-07T02:29:13;8.80;38.00
75927;DHT22;64605;48.296;16.416;2023-04-07T02:31:38;8.70;37.70
75927;DHT22;64605;48.296;16.416;2023-04-07T02:34:04;8.60;38.10
75927;DHT22;64605;48.296;16.416;2023-04-07T02:36:30;8.60;38.20
75927;DHT22;64605;48.296;16.416;2023-04-07T02:38:56;8.60;38.20
75927;DHT22;64605;48.296;16.416;2023-04-07T02:41:21;8.60;38.30
75927;DHT22;64605;48.296;16.416;2023-04-07T02:43:47;8.60;38.10
75927;DHT22;64605;48.296;16.416;2023-04-07T02:46:13;8.60;38.00
75927;DHT22;64605;48.296;16.416;2023-04-07T02:48:38;8.60;38.10
75927;DHT22;64605;48.296;16.416;2023-04-07T02:51:04;8.60;38.40
75927;DHT22;64605;48.296;16.416;2023-04-07T02:53:30;8.50;37.90
75927;DHT22;64605;48.296;16.416;2023-04-07T02:55:55;8.50;38.10
75927;DHT22;64605;48.296;16.416;2023-04-07T02:58:21;8.50;38.20
75927;DHT22;64605;48.296;16.416;2023-04-07T03:00:47;8.50;38.20
75927;DHT22;64605;48.296;16.416;2023-04-07T03:03:13;8.40;38.30
75927;DHT22;64605;48.296;16.416;2023-04-07T03:05:39;8.40;38.40
75927;DHT22;64605;48.296;16.416;2023-04-07T03:08:05;8.30;38.40
75927;DHT22;64605;48.296;16.416;2023-04-07T03:10:31;8.30;38.30
75927;DHT22;64605;48.296;16.416;2023-04-07T03:12:56;8.30;38.50
75927;DHT22;64605;48.296;16.416;2023-04-07T03:15:22;8.30;38.30
75927;DHT22;64605;48.296;16.416;2023-04-07T03:17:48;8.20;38.60
75927;DHT22;64605;48.296;16.416;2023-04-07T03:20:13;8.20;38.80
75927;DHT22;64605;48.296;16.416;2023-04-07T03:22:39;8.20;38.80
75927;DHT22;64605;48.296;16.416;2023-04-07T03:25:05;8.20;38.90
75927;DHT22;64605;48.296;16.416;2023-04-07T03:27:31;8.20;38.80
75927;DHT22;64605;48.296;16.416;2023-04-07T03:29:57;8.20;38.90
75927;DHT22;64605;48.296;16.416;2023-04-07T03:32:22;8.10;39.30
75927;DHT22;64605;48.296;16.416;2023-04-07T03:34:48;8.20;39.40
75927;DHT22;64605;48.296;16.416;2023-04-07T03:37:14;8.10;39.10
75927;DHT22;64605;48.296;16.416;2023-04-07T03:39:40;8.10;39.30
75927;DHT22;64605;48.296;16.416;2023-04-07T03:42:06;8.10;39.40
75927;DHT22;64605;48.296;16.416;2023-04-07T03:44:32;8.10;39.40
75927;DHT22;64605;48.296;16.416;2023-04-07T03:46:59;8.10;39.30
75927;DHT22;64605;48.296;16.416;2023-04-07T03:49:25;8.10;39.40
75927;DHT22;64605;48.296;16.416;2023-04-07T03:51:51;8.20;39.20
75927;DHT22;64605;48.296;16.416;2023-04-07T03:54:17;8.20;39.40
75927;DHT22;64605;48.296;16.416;2023-04-07T03:56:42;8.20;39.10
75927;DHT22;64605;48.296;16.416;2023-04-07T03:59:08;8.20;39.30
75927;DHT22;64605;48.296;16.416;2023-04-07T04:01:34;8.20;39.10
75927;DHT22;64605;48.296;16.416;2023-04-07T04:04:01;8.10;39.70
75927;DHT22;64605;48.296;16.416;2023-04-07T04:06:26;8.10;39.40
75927;DHT22;64605;48.296;16.416;2023-04-07T04:08:52;8.00;39.60
75927;DHT22;64605;48.296;16.416;2023-04-07T04:11:18;8.00;39.70
75927;DHT22;64605;48.296;16.416;2023-04-07T04:13:43;8.00;39.50
75927;DHT22;64605;48.296;16.416;2023-04-07T04:16:09;8.00;39.60
75927;DHT22;64605;48.296;16.416;2023-04-07T04:18:35;8.00;39.70
75927;DHT22;64605;48.296;16.416;2023-04-07T04:21:00;8.00;39.60
75927;DHT22;64605;48.296;16.416;2023-04-07T04:23:26;8.00;39.90
75927;DHT22;64605;48.296;16.416;2023-04-07T04:25:52;8.00;39.80
75927;DHT22;64605;48.296;16.416;2023-04-07T04:28:17;8.00;39.90
75927;DHT22;64605;48.296;16.416;2023-04-07T04:30:43;8.00;39.90
75927;DHT22;64605;48.296;16.416;2023-04-07T04:33:08;8.00;40.00
75927;DHT22;64605;48.296;16.416;2023-04-07T04:35:34;8.00;40.10
75927;DHT22;64605;48.296;16.416;2023-04-07T04:38:00;8.00;40.20
75927;DHT22;64605;48.296;16.416;2023-04-07T04:40:25;8.00;41.80
75927;DHT22;64605;48.296;16.416;2023-04-07T04:42:51;8.00;40.50
75927;DHT22;64605;48.296;16.416;2023-04-07T04:45:17;8.10;40.20
75927;DHT22;64605;48.296;16.416;2023-04-07T04:47:42;8.10;40.40
75927;DHT22;64605;48.296;16.416;2023-04-07T04:50:09;8.10;40.70
75927;DHT22;64605;48.296;16.416;2023-04-07T04:52:35;8.10;40.30
75927;DHT22;64605;48.296;16.416;2023-04-07T04:55:00;8.20;40.20
75927;DHT22;64605;48.296;16.416;2023-04-07T04:57:26;8.20;40.10
75927;DHT22;64605;48.296;16.416;2023-04-07T04:59:52;8.20;39.70
75927;DHT22;64605;48.296;16.416;2023-04-07T05:02:17;8.30;39.80
75927;DHT22;64605;48.296;16.416;2023-04-07T05:04:43;8.30;40.10
75927;DHT22;64605;48.296;16.416;2023-04-07T05:07:09;8.40;40.00
75927;DHT22;64605;48.296;16.416;2023-04-07T05:09:34;8.40;39.80
75927;DHT22;64605;48.296;16.416;2023-04-07T05:12:00;8.50;39.80
75927;DHT22;64605;48.296;16.416;2023-04-07T05:14:27;8.60;39.30
75927;DHT22;64605;48.296;16.416;2023-04-07T05:16:52;8.70;39.20
75927;DHT22;64605;48.296;16.416;2023-04-07T05:19:19;8.70;39.00
75927;DHT22;64605;48.296;16.416;2023-04-07T05:21:44;8.80;39.10
75927;DHT22;64605;48.296;16.416;2023-04-07T05:24:10;8.90;38.60
75927;DHT22;64605;48.296;16.416;2023-04-07T05:26:36;9.00;38.70
75927;DHT22;64605;48.296;16.416;2023-04-07T05:29:01;9.10;38.70
75927;DHT22;64605;48.296;16.416;2023-04-07T05:31:27;9.20;38.70
75927;DHT22;64605;48.296;16.416;2023-04-07T05:33:52;9.30;38.40
75927;DHT22;64605;48.296;16.416;2023-04-07T05:36:18;9.40;38.60
75927;DHT22;64605;48.296;16.416;2023-04-07T05:38:45;9.60;38.50
75927;DHT22;64605;48.296;16.416;2023-04-07T05:41:10;9.70;38.00
75927;DHT22;64605;48.296;16.416;2023-04-07T05:43:36;9.70;37.60
75927;DHT22;64605;48.296;16.416;2023-04-07T05:46:02;9.70;37.60
75927;DHT22;64605;48.296;16.416;2023-04-07T05:48:28;9.80;37.30
75927;DHT22;64605;48.296;16.416;2023-04-07T05:50:53;10.00;37.50
75927;DHT22;64605;48.296;16.416;2023-04-07T05:53:20;10.20;37.10
75927;DHT22;64605;48.296;16.416;2023-04-07T05:55:46;10.40;36.90
75927;DHT22;64605;48.296;16.416;2023-04-07T05:58:11;10.50;36.60
75927;DHT22;64605;48.296;16.416;2023-04-07T06:00:37;10.60;36.00
75927;DHT22;64605;48.296;16.416;2023-04-07T06:03:02;10.70;36.10
75927;DHT22;64605;48.296;16.416;2023-04-07T06:05:28;10.80;36.30
75927;DHT22;64605;48.296;16.416;2023-04-07T06:07:54;10.90;36.10
75927;DHT22;64605;48.296;16.416;2023-04-07T06:10:19;10.90;35.90
75927;DHT22;64605;48.296;16.416;2023-04-07T06:12:45;11.00;35.20
75927;DHT22;64605;48.296;16.416;2023-04-07T06:15:11;11.10;35.20
75927;DHT22;64605;48.296;16.416;2023-04-07T06:17:36;11.10;35.00
75927;DHT22;64605;48.296;16.416;2023-04-07T06:20:02;11.10;35.50
75927;DHT22;64605;48.296;16.416;2023-04-07T06:22:28;11.20;35.30
75927;DHT22;64605;48.296;16.416;2023-04-07T06:24:54;11.20;35.10
75927;DHT22;64605;48.296;16.416;2023-04-07T06:27:20;11.30;34.90
75927;DHT22;64605;48.296;16.416;2023-04-07T06:29:46;11.40;35.50
75927;DHT22;64605;48.296;16.416;2023-04-07T06:32:12;11.60;35.00
75927;DHT22;64605;48.296;16.416;2023-04-07T06:34:38;11.70;34.30
75927;DHT22;64605;48.296;16.416;2023-04-07T06:37:03;11.70;34.40
75927;DHT22;64605;48.296;16.416;2023-04-07T06:39:31;11.80;34.20
75927;DHT22;64605;48.296;16.416;2023-04-07T06:41:56;11.90;34.10
75927;DHT22;64605;48.296;16.416;2023-04-07T06:44:22;12.00;33.70
75927;DHT22;64605;48.296;16.416;2023-04-07T06:46:48;12.10;34.40
75927;DHT22;64605;48.296;16.416;2023-04-07T06:49:18;12.20;34.40
75927;DHT22;64605;48.296;16.416;2023-04-07T06:51:44;12.40;34.00
75927;DHT22;64605;48.296;16.416;2023-04-07T06:54:09;12.50;33.40
75927;DHT22;64605;48.296;16.416;2023-04-07T06:56:39;12.60;33.10
75927;DHT22;64605;48.296;16.416;2023-04-07T06:59:05;12.60;33.30
75927;DHT22;64605;48.296;16.416;2023-04-07T07:01:31;12.70;33.50
75927;DHT22;64605;48.296;16.416;2023-04-07T07:03:57;12.70;33.20
75927;DHT22;64605;48.296;16.416;2023-04-07T07:06:24;12.90;32.90
75927;DHT22;64605;48.296;16.416;2023-04-07T07:08:51;13.10;32.10
75927;DHT22;64605;48.296;16.416;2023-04-07T07:11:16;13.30;31.90
75927;DHT22;64605;48.296;16.416;2023-04-07T07:13:42;13.50;31.20
75927;DHT22;64605;48.296;16.416;2023-04-07T07:16:09;13.60;31.20
75927;DHT22;64605;48.296;16.416;2023-04-07T07:18:35;14.00;31.20
75927;DHT22;64605;48.296;16.416;2023-04-07T07:21:01;14.30;31.40
75927;DHT22;64605;48.296;16.416;2023-04-07T07:23:27;14.60;30.80
75927;DHT22;64605;48.296;16.416;2023-04-07T07:25:52;14.80;30.00
75927;DHT22;64605;48.296;16.416;2023-04-07T07:28:18;14.80;29.20
75927;DHT22;64605;48.296;16.416;2023-04-07T07:30:46;14.70;28.90
75927;DHT22;64605;48.296;16.416;2023-04-07T07:33:11;14.70;28.90
75927;DHT22;64605;48.296;16.416;2023-04-07T07:35:37;14.80;29.10
75927;DHT22;64605;48.296;16.416;2023-04-07T07:38:03;14.90;29.20
75927;DHT22;64605;48.296;16.416;2023-04-07T07:40:28;14.90;28.30
75927;DHT22;64605;48.296;16.416;2023-04-07T07:42:54;14.90;28.10
75927;DHT22;64605;48.296;16.416;2023-04-07T07:45:20;14.90;28.60
75927;DHT22;64605;48.296;16.416;2023-04-07T07:47:46;15.10;28.60
75927;DHT22;64605;48.296;16.416;2023-04-07T07:50:11;15.20;28.40
75927;DHT22;64605;48.296;16.416;2023-04-07T07:52:37;15.40;28.60
75927;DHT22;64605;48.296;16.416;2023-04-07T07:55:03;15.50;28.20
75927;DHT22;64605;48.296;16.416;2023-04-07T07:57:28;15.70;28.10
75927;DHT22;64605;48.296;16.416;2023-04-07T07:59:56;15.90;28.20
75927;DHT22;64605;48.296;16.416;2023-04-07T08:02:22;15.90;28.00
75927;DHT22;64605;48.296;16.416;2023-04-07T08:04:50;16.00;27.50
75927;DHT22;64605;48.296;16.416;2023-04-07T08:07:16;16.00;27.30
75927;DHT22;64605;48.296;16.416;2023-04-07T08:09:42;15.90;27.30
75927;DHT22;64605;48.296;16.416;2023-04-07T08:12:07;15.90;27.20
75927;DHT22;64605;48.296;16.416;2023-04-07T08:14:33;15.90;27.60
75927;DHT22;64605;48.296;16.416;2023-04-07T08:16:58;16.00;27.30
75927;DHT22;64605;48.296;16.416;2023-04-07T08:19:24;16.10;27.30
75927;DHT22;64605;48.296;16.416;2023-04-07T08:21:50;16.30;27.20
75927;DHT22;64605;48.296;16.416;2023-04-07T08:24:16;16.50;27.30
75927;DHT22;64605;48.296;16.416;2023-04-07T08:26:41;16.60;27.40
75927;DHT22;64605;48.296;16.416;2023-04-07T08:29:07;16.60;27.20
75927;DHT22;64605;48.296;16.416;2023-04-07T08:31:32;16.60;27.50
75927;DHT22;64605;48.296;16.416;2023-04-07T08:33:58;16.60;27.30
75927;DHT22;64605;48.296;16.416;2023-04-07T08:36:24;16.60;26.90
75927;DHT22;64605;48.296;16.416;2023-04-07T08:38:50;16.60;27.40
75927;DHT22;64605;48.296;16.416;2023-04-07T08:41:26;16.60;26.70
75927;DHT22;64605;48.296;16.416;2023-04-07T08:43:55;16.50;26.60
75927;DHT22;64605;48.296;16.416;2023-04-07T08:46:24;16.40;27.00
75927;DHT22;64605;48.296;16.416;2023-04-07T08:48:51;16.20;26.80
75927;DHT22;64605;48.296;16.416;2023-04-07T08:51:26;16.20;26.80
75927;DHT22;64605;48.296;16.416;2023-04-07T08:53:53;16.20;26.80
75927;DHT22;64605;48.296;16.416;2023-04-07T08:56:19;16.20;27.40
75927;DHT22;64605;48.296;16.416;2023-04-07T08:58:48;16.10;26.70
75927;DHT22;64605;48.296;16.416;2023-04-07T09:01:14;16.00;28.30
75927;DHT22;64605;48.296;16.416;2023-04-07T09:03:43;15.90;28.70
75927;DHT22;64605;48.296;16.416;2023-04-07T09:06:09;15.80;29.10
75927;DHT22;64605;48.296;16.416;2023-04-07T09:08:36;15.70;29.40
75927;DHT22;64605;48.296;16.416;2023-04-07T09:11:01;15.70;28.40
75927;DHT22;64605;48.296;16.416;2023-04-07T09:13:27;15.70;29.20
75927;DHT22;64605;48.296;16.416;2023-04-07T09:15:53;15.70;28.50
75927;DHT22;64605;48.296;16.416;2023-04-07T09:18:19;15.80;28.80
75927;DHT22;64605;48.296;16.416;2023-04-07T09:23:30;15.60;28.40
75927;DHT22;64605;48.296;16.416;2023-04-07T09:25:57;15.50;28.30
75927;DHT22;64605;48.296;16.416;2023-04-07T09:28:24;15.60;29.00
75927;DHT22;64605;48.296;16.416;2023-04-07T09:30:54;15.60;28.90
75927;DHT22;64605;48.296;16.416;2023-04-07T09:33:27;15.50;28.40
75927;DHT22;64605;48.296;16.416;2023-04-07T09:35:53;15.30;27.90
75927;DHT22;64605;48.296;16.416;2023-04-07T09:38:19;15.20;27.90
75927;DHT22;64605;48.296;16.416;2023-04-07T09:40:44;15.00;28.20
75927;DHT22;64605;48.296;16.416;2023-04-07T09:43:17;14.90;28.70
75927;DHT22;64605;48.296;16.416;2023-04-07T09:45:43;14.80;29.10
75927;DHT22;64605;48.296;16.416;2023-04-07T09:48:20;14.80;28.80
75927;DHT22;64605;48.296;16.416;2023-04-07T09:50:46;14.90;29.80
75927;DHT22;64605;48.296;16.416;2023-04-07T09:53:16;15.00;29.80
75927;DHT22;64605;48.296;16.416;2023-04-07T09:55:44;15.10;29.80
75927;DHT22;64605;48.296;16.416;2023-04-07T09:58:13;15.20;30.00
75927;DHT22;64605;48.296;16.416;2023-04-07T10:00:41;15.30;29.70
75927;DHT22;64605;48.296;16.416;2023-04-07T10:03:07;15.40;29.90
75927;DHT22;64605;48.296;16.416;2023-04-07T10:05:33;15.50;30.10
75927;DHT22;64605;48.296;16.416;2023-04-07T10:08:01;15.60;29.00
75927;DHT22;64605;48.296;16.416;2023-04-07T10:10:27;15.60;29.80
75927;DHT22;64605;48.296;16.416;2023-04-07T10:12:56;15.60;29.20
75927;DHT22;64605;48.296;16.416;2023-04-07T10:15:22;15.70;28.70
75927;DHT22;64605;48.296;16.416;2023-04-07T10:17:48;15.70;29.60
75927;DHT22;64605;48.296;16.416;2023-04-07T10:20:17;15.60;28.80
75927;DHT22;64605;48.296;16.416;2023-04-07T10:22:44;15.60;28.80
75927;DHT22;64605;48.296;16.416;2023-04-07T10:25:13;15.60;28.30
75927;DHT22;64605;48.296;16.416;2023-04-07T10:27:46;15.70;29.20
75927;DHT22;64605;48.296;16.416;2023-04-07T10:30:28;15.80;28.80
75927;DHT22;64605;48.296;16.416;2023-04-07T10:32:54;15.70;29.10
75927;DHT22;64605;48.296;16.416;2023-04-07T10:35:21;15.80;28.40
75927;DHT22;64605;48.296;16.416;2023-04-07T10:40:31;15.90;28.80
75927;DHT22;64605;48.296;16.416;2023-04-07T10:42:57;16.00;29.00
75927;DHT22;64605;48.296;16.416;2023-04-07T10:48:17;16.10;28.40
75927;DHT22;64605;48.296;16.416;2023-04-07T10:53:32;16.30;28.10
75927;DHT22;64605;48.296;16.416;2023-04-07T10:55:59;16.40;27.60
75927;DHT22;64605;48.296;16.416;2023-04-07T10:58:31;16.50;28.20
75927;DHT22;64605;48.296;16.416;2023-04-07T11:03:36;16.60;27.70
75927;DHT22;64605;48.296;16.416;2023-04-07T11:11:01;17.20;27.70
75927;DHT22;64605;48.296;16.416;2023-04-07T11:13:27;17.40;27.40
75927;DHT22;64605;48.296;16.416;2023-04-07T11:15:53;17.70;27.70
75927;DHT22;64605;48.296;16.416;2023-04-07T11:18:21;18.10;26.90
75927;DHT22;64605;48.296;16.416;2023-04-07T11:20:56;18.50;26.70
75927;DHT22;64605;48.296;16.416;2023-04-07T11:23:24;18.70;26.50
75927;DHT22;64605;48.296;16.416;2023-04-07T11:25:53;18.70;25.70
75927;DHT22;64605;48.296;16.416;2023-04-07T11:28:23;18.60;25.40
75927;DHT22;64605;48.296;16.416;2023-04-07T11:30:52;18.50;25.50
75927;DHT22;64605;48.296;16.416;2023-04-07T11:33:21;18.50;25.80
75927;DHT22;64605;48.296;16.416;2023-04-07T11:35:55;18.60;25.90
75927;DHT22;64605;48.296;16.416;2023-04-07T11:38:27;18.70;25.90
75927;DHT22;64605;48.296;16.416;2023-04-07T11:40:54;19.00;26.00
75927;DHT22;64605;48.296;16.416;2023-04-07T11:43:25;19.30;25.30
75927;DHT22;64605;48.296;16.416;2023-04-07T11:46:13;19.60;24.30
75927;DHT22;64605;48.296;16.416;2023-04-07T11:48:41;19.90;29.40
75927;DHT22;64605;48.296;16.416;2023-04-07T11:51:21;20.10;26.20
75927;DHT22;64605;48.296;16.416;2023-04-07T11:53:54;20.30;24.80
75927;DHT22;64605;48.296;16.416;2023-04-07T11:56:20;20.60;24.70
75927;DHT22;64605;48.296;16.416;2023-04-07T11:58:48;20.60;24.50
75927;DHT22;64605;48.296;16.416;2023-04-07T12:01:14;20.50;24.20
75927;DHT22;64605;48.296;16.416;2023-04-07T12:06:33;19.80;23.90
75927;DHT22;64605;48.296;16.416;2023-04-07T12:09:00;19.40;23.80
75927;DHT22;64605;48.296;16.416;2023-04-07T12:11:26;19.10;25.50
75927;DHT22;64605;48.296;16.416;2023-04-07T12:13:52;19.00;24.90
75927;DHT22;64605;48.296;16.416;2023-04-07T12:16:19;18.90;25.60
75927;DHT22;64605;48.296;16.416;2023-04-07T12:18:46;18.90;25.90
75927;DHT22;64605;48.296;16.416;2023-04-07T12:21:11;19.00;25.20
75927;DHT22;64605;48.296;16.416;2023-04-07T12:23:37;18.90;25.30
75927;DHT22;64605;48.296;16.416;2023-04-07T12:26:03;18.80;25.20
75927;DHT22;64605;48.296;16.416;2023-04-07T12:28:29;18.60;25.50
75927;DHT22;64605;48.296;16.416;2023-04-07T12:30:55;18.40;25.20
75927;DHT22;64605;48.296;16.416;2023-04-07T12:33:20;18.10;25.80
75927;DHT22;64605;48.296;16.416;2023-04-07T12:35:46;18.00;26.30
75927;DHT22;64605;48.296;16.416;2023-04-07T12:38:12;17.90;26.50
75927;DHT22;64605;48.296;16.416;2023-04-07T12:40:38;17.70;27.80
75927;DHT22;64605;48.296;16.416;2023-04-07T12:43:06;17.70;27.10
75927;DHT22;64605;48.296;16.416;2023-04-07T12:45:32;17.50;27.20
75927;DHT22;64605;48.296;16.416;2023-04-07T12:47:58;17.30;26.40
75927;DHT22;64605;48.296;16.416;2023-04-07T12:50:23;17.10;27.30
75927;DHT22;64605;48.296;16.416;2023-04-07T12:52:50;16.90;27.90
75927;DHT22;64605;48.296;16.416;2023-04-07T12:55:19;16.80;27.40
75927;DHT22;64605;48.296;16.416;2023-04-07T12:57:45;16.60;28.00
75927;DHT22;64605;48.296;16.416;2023-04-07T13:00:12;16.40;28.00
75927;DHT22;64605;48.296;16.416;2023-04-07T13:02:37;16.30;28.30
75927;DHT22;64605;48.296;16.416;2023-04-07T13:05:03;16.20;28.60
75927;DHT22;64605;48.296;16.416;2023-04-07T13:07:29;16.00;28.90
75927;DHT22;64605;48.296;16.416;2023-04-07T13:09:55;16.00;29.20
75927;DHT22;64605;48.296;16.416;2023-04-07T13:12:22;16.00;29.30
75927;DHT22;64605;48.296;16.416;2023-04-07T13:14:47;16.00;29.40
75927;DHT22;64605;48.296;16.416;2023-04-07T13:17:13;15.90;29.70
75927;DHT22;64605;48.296;16.416;2023-04-07T13:19:39;15.70;29.80
75927;DHT22;64605;48.296;16.416;2023-04-07T13:22:05;15.40;30.20
75927;DHT22;64605;48.296;16.416;2023-04-07T13:24:31;15.30;31.10
75927;DHT22;64605;48.296;16.416;2023-04-07T13:26:56;15.30;31.50
75927;DHT22;64605;48.296;16.416;2023-04-07T13:29:23;15.40;32.10
75927;DHT22;64605;48.296;16.416;2023-04-07T13:31:48;15.40;31.60
75927;DHT22;64605;48.296;16.416;2023-04-07T13:34:14;15.50;31.30
75927;DHT22;64605;48.296;16.416;2023-04-07T13:36:40;15.60;31.60
75927;DHT22;64605;48.296;16.416;2023-04-07T13:39:06;15.80;31.20
75927;DHT22;64605;48.296;16.416;2023-04-07T13:41:34;15.90;31.40
75927;DHT22;64605;48.296;16.416;2023-04-07T13:43:59;15.90;31.70
75927;DHT22;64605;48.296;16.416;2023-04-07T13:46:27;15.90;32.30
75927;DHT22;64605;48.296;16.416;2023-04-07T13:48:53;15.90;32.30
75927;DHT22;64605;48.296;16.416;2023-04-07T13:51:19;15.80;33.40
75927;DHT22;64605;48.296;16.416;2023-04-07T13:53:46;15.60;32.80
75927;DHT22;64605;48.296;16.416;2023-04-07T13:56:12;15.60;33.10
75927;DHT22;64605;48.296;16.416;2023-04-07T13:58:37;15.60;33.20
75927;DHT22;64605;48.296;16.416;2023-04-07T14:01:03;15.70;33.20
75927;DHT22;64605;48.296;16.416;2023-04-07T14:03:29;15.60;33.70
75927;DHT22;64605;48.296;16.416;2023-04-07T14:05:56;15.60;34.20
75927;DHT22;64605;48.296;16.416;2023-04-07T14:08:26;15.60;33.80
75927;DHT22;64605;48.296;16.416;2023-04-07T14:10:51;15.70;33.60
75927;DHT22;64605;48.296;16.416;2023-04-07T14:13:17;15.50;34.10
75927;DHT22;64605;48.296;16.416;2023-04-07T14:15:43;15.50;34.30
75927;DHT22;64605;48.296;16.416;2023-04-07T14:18:09;15.40;34.50
75927;DHT22;64605;48.296;16.416;2023-04-07T14:20:35;15.30;33.80
75927;DHT22;64605;48.296;16.416;2023-04-07T14:23:01;15.30;34.20
75927;DHT22;64605;48.296;16.416;2023-04-07T14:25:27;15.30;34.30
75927;DHT22;64605;48.296;16.416;2023-04-07T14:27:52;15.40;34.60
75927;DHT22;64605;48.296;16.416;2023-04-07T14:30:18;15.50;33.50
75927;DHT22;64605;48.296;16.416;2023-04-07T14:32:44;15.60;33.20
75927;DHT22;64605;48.296;16.416;2023-04-07T14:35:10;15.60;33.20
75927;DHT22;64605;48.296;16.416;2023-04-07T14:37:35;15.70;33.30
75927;DHT22;64605;48.296;16.416;2023-04-07T14:40:03;15.70;33.30
75927;DHT22;64605;48.296;16.416;2023-04-07T14:42:30;15.70;32.90
75927;DHT22;64605;48.296;16.416;2023-04-07T14:44:56;15.70;32.60
75927;DHT22;64605;48.296;16.416;2023-04-07T14:47:22;15.80;33.30
75927;DHT22;64605;48.296;16.416;2023-04-07T14:49:47;15.90;33.40
75927;DHT22;64605;48.296;16.416;2023-04-07T14:52:13;15.90;32.80
75927;DHT22;64605;48.296;16.416;2023-04-07T14:54:39;16.00;33.20
75927;DHT22;64605;48.296;16.416;2023-04-07T14:57:05;15.80;32.50
75927;DHT22;64605;48.296;16.416;2023-04-07T14:59:31;15.60;32.70
75927;DHT22;64605;48.296;16.416;2023-04-07T15:01:56;15.50;33.30
75927;DHT22;64605;48.296;16.416;2023-04-07T15:04:22;15.40;33.50
75927;DHT22;64605;48.296;16.416;2023-04-07T15:06:48;15.30;34.00
75927;DHT22;64605;48.296;16.416;2023-04-07T15:09:13;15.30;34.40
75927;DHT22;64605;48.296;16.416;2023-04-07T15:11:39;15.10;34.40
75927;DHT22;64605;48.296;16.416;2023-04-07T15:14:05;15.00;34.40
75927;DHT22;64605;48.296;16.416;2023-04-07T15:16:31;14.90;34.60
75927;DHT22;64605;48.296;16.416;2023-04-07T15:18:58;14.80;34.60
75927;DHT22;64605;48.296;16.416;2023-04-07T15:21:24;14.70;35.50
75927;DHT22;64605;48.296;16.416;2023-04-07T15:23:51;14.60;35.50
75927;DHT22;64605;48.296;16.416;2023-04-07T15:26:16;14.50;36.30
75927;DHT22;64605;48.296;16.416;2023-04-07T15:28:42;14.30;36.20
75927;DHT22;64605;48.296;16.416;2023-04-07T15:31:08;14.20;36.40
75927;DHT22;64605;48.296;16.416;2023-04-07T15:33:38;14.10;36.30
75927;DHT22;64605;48.296;16.416;2023-04-07T15:36:08;13.90;36.80
75927;DHT22;64605;48.296;16.416;2023-04-07T15:38:34;13.80;37.30
75927;DHT22;64605;48.296;16.416;2023-04-07T15:41:00;13.70;37.40
75927;DHT22;64605;48.296;16.416;2023-04-07T15:43:25;13.60;38.00